createdAt,value
2022-08-05T00:01:27.623Z,30.20
2022-08-05T00:04:18.752Z,30.10
2022-08-05T00:07:27.341Z,30.00
2022-08-05T00:10:15.644Z,30.00
2022-08-05T00:13:04.071Z,29.90
2022-08-05T00:15:55.069Z,29.80
2022-08-05T00:18:48.086Z,29.80
2022-08-05T00:21:38.532Z,29.70
2022-08-05T00:24:31.509Z,29.60
2022-08-05T00:27:20.068Z,29.50
2022-08-05T00:30:17.150Z,29.50
2022-08-05T00:33:06.363Z,29.50
2022-08-05T00:36:16.382Z,29.40
2022-08-05T00:39:14.659Z,29.40
2022-08-05T00:42:04.214Z,29.40
2022-08-05T00:44:52.634Z,29.40
2022-08-05T00:47:57.425Z,29.30
2022-08-05T00:50:52.507Z,29.30
2022-08-05T00:53:59.959Z,29.30
2022-08-05T00:56:51.872Z,29.30
2022-08-05T00:59:44.453Z,29.20
2022-08-05T01:02:33.308Z,29.20
2022-08-05T01:05:21.753Z,29.20
2022-08-05T01:08:41.365Z,29.20
2022-08-05T01:11:33.707Z,29.20
2022-08-05T01:14:32.642Z,29.20
2022-08-05T01:17:26.544Z,29.20
2022-08-05T01:20:20.499Z,29.20
2022-08-05T01:23:22.778Z,29.20
2022-08-05T01:26:32.767Z,29.20
2022-08-05T01:29:26.211Z,29.20
2022-08-05T01:32:22.856Z,29.30
2022-08-05T01:35:51.854Z,29.30
2022-08-05T01:38:27.167Z,29.30
2022-08-05T01:41:21.645Z,29.40
2022-08-05T01:44:11.331Z,29.30
2022-08-05T01:47:01.426Z,29.40
2022-08-05T01:50:01.475Z,29.40
2022-08-05T01:52:51.235Z,29.50
2022-08-05T01:55:41.738Z,29.50
2022-08-05T01:58:44.690Z,29.50
2022-08-05T02:01:40.112Z,29.50
2022-08-05T02:04:30.998Z,29.50
2022-08-05T02:07:21.912Z,29.50
2022-08-05T02:10:11.351Z,29.50
2022-08-05T02:13:15.922Z,29.50
2022-08-05T02:16:08.603Z,29.50
2022-08-05T02:19:07.789Z,29.40
2022-08-05T02:22:00.262Z,29.40
2022-08-05T02:24:52.458Z,29.40
2022-08-05T02:27:59.538Z,29.40
2022-08-05T02:30:54.662Z,29.30
2022-08-05T02:33:49.939Z,29.30
2022-08-05T02:36:58.536Z,29.30
2022-08-05T02:39:47.661Z,29.30
2022-08-05T02:42:40.113Z,29.30
2022-08-05T02:45:28.703Z,29.30
2022-08-05T02:48:37.137Z,29.30
2022-08-05T02:51:28.562Z,29.40
2022-08-05T02:54:37.703Z,29.40
2022-08-05T02:58:11.718Z,29.40
2022-08-05T03:00:38.853Z,29.40
2022-08-05T03:03:27.576Z,29.40
2022-08-05T03:06:53.942Z,29.40
2022-08-05T03:09:38.205Z,29.40
2022-08-05T03:12:36.470Z,29.30
2022-08-05T03:15:25.150Z,29.30
2022-08-05T03:18:14.219Z,29.20
2022-08-05T03:21:06.114Z,29.20
2022-08-05T03:23:55.250Z,29.10
2022-08-05T03:26:45.738Z,29.00
2022-08-05T03:29:44.682Z,29.00
2022-08-05T03:32:48.262Z,28.90
2022-08-05T03:35:41.492Z,28.90
2022-08-05T03:38:33.279Z,28.80
2022-08-05T03:41:25.901Z,28.80
2022-08-05T03:44:21.733Z,28.70
2022-08-05T03:47:13.570Z,28.50
2022-08-05T03:50:02.098Z,28.60
2022-08-05T03:55:34.390Z,28.50
2022-08-05T03:56:11.851Z,28.50
2022-08-05T03:59:05.076Z,28.40
2022-08-05T04:01:58.893Z,28.30
2022-08-05T04:04:49.065Z,28.20
2022-08-05T04:07:57.063Z,28.10
2022-08-05T04:10:46.408Z,27.90
2022-08-05T04:13:50.673Z,27.70
2022-08-05T04:16:41.679Z,27.60
2022-08-05T04:19:30.409Z,27.50
2022-08-05T04:22:21.257Z,27.40
2022-08-05T04:25:11.290Z,27.40
2022-08-05T04:28:03.974Z,27.30
2022-08-05T04:31:01.055Z,27.30
2022-08-05T04:34:19.342Z,27.30
2022-08-05T04:36:58.352Z,27.30
2022-08-05T04:39:52.946Z,27.30
2022-08-05T04:42:44.104Z,27.30
2022-08-05T04:45:48.649Z,27.30
2022-08-05T04:48:37.702Z,27.30
2022-08-05T04:51:26.217Z,27.20
2022-08-05T04:54:19.713Z,27.20
2022-08-05T04:57:09.594Z,27.10
2022-08-05T04:59:58.974Z,27.00
2022-08-05T05:02:47.580Z,27.00
2022-08-05T05:06:36.629Z,26.90
2022-08-05T05:08:44.639Z,26.90
2022-08-05T05:11:53.877Z,26.80
2022-08-05T05:14:50.576Z,26.80
2022-08-05T05:17:56.445Z,26.80
2022-08-05T05:20:46.398Z,26.70
2022-08-05T05:23:39.138Z,26.70
2022-08-05T05:26:46.839Z,26.70
2022-08-05T05:30:04.557Z,26.60
2022-08-05T05:32:50.373Z,26.60
2022-08-05T05:35:39.687Z,26.60
2022-08-05T05:38:31.110Z,26.60
2022-08-05T05:41:20.164Z,26.50
2022-08-05T05:44:36.922Z,26.60
2022-08-05T05:47:30.257Z,26.60
2022-08-05T05:50:27.264Z,26.60
2022-08-05T05:53:21.244Z,26.80
2022-08-05T05:56:10.689Z,27.10
2022-08-05T05:59:03.580Z,27.40
2022-08-05T06:01:57.064Z,27.80
2022-08-05T06:04:49.244Z,28.20
2022-08-05T06:07:41.277Z,28.60
2022-08-05T06:10:36.309Z,29.00
2022-08-05T06:13:25.963Z,29.40
2022-08-05T06:16:29.067Z,29.70
2022-08-05T06:19:26.100Z,30.10
2022-08-05T06:22:24.498Z,30.50
2022-08-05T06:25:58.976Z,30.70
2022-08-05T06:28:23.351Z,30.80
2022-08-05T06:31:18.297Z,30.90
2022-08-05T06:34:10.688Z,30.90
2022-08-05T06:36:59.343Z,30.70
2022-08-05T06:39:47.881Z,31.10
2022-08-05T06:42:39.711Z,31.20
2022-08-05T06:45:44.779Z,31.40
2022-08-05T06:48:56.813Z,31.70
2022-08-05T06:51:45.787Z,31.90
2022-08-05T06:54:35.964Z,32.20
2022-08-05T06:58:03.304Z,32.40
2022-08-05T07:00:34.422Z,32.40
2022-08-05T07:03:32.431Z,32.40
2022-08-05T07:06:22.772Z,32.30
2022-08-05T07:09:11.271Z,32.20
2022-08-05T07:12:02.423Z,32.10
2022-08-05T07:15:08.787Z,32.00
2022-08-05T07:18:07.432Z,31.90
2022-08-05T07:20:57.378Z,31.80
2022-08-05T07:23:49.898Z,31.70
2022-08-05T07:26:41.045Z,31.50
2022-08-05T07:30:22.802Z,31.30
2022-08-05T07:32:38.194Z,31.20
2022-08-05T07:36:01.813Z,31.10
2022-08-05T07:38:43.601Z,31.00
2022-08-05T07:42:14.353Z,30.90
2022-08-05T07:44:41.577Z,30.90
2022-08-05T07:47:42.576Z,30.80
2022-08-05T07:50:33.620Z,30.70
2022-08-05T07:53:22.179Z,30.70
2022-08-05T07:57:01.197Z,30.60
2022-08-05T07:59:38.608Z,30.60
2022-08-05T08:02:31.151Z,30.40
2022-08-05T08:05:41.188Z,30.30
2022-08-05T08:08:32.126Z,30.30
2022-08-05T08:11:27.726Z,30.40
2022-08-05T08:14:29.110Z,30.50
2022-08-05T08:17:17.805Z,30.60
2022-08-05T08:20:43.839Z,30.60
2022-08-05T08:24:01.930Z,30.70
2022-08-05T08:26:30.143Z,30.60
2022-08-05T08:30:03.097Z,30.60
2022-08-05T08:32:28.399Z,30.40
2022-08-05T08:35:16.971Z,30.30
2022-08-05T08:38:07.721Z,30.20
2022-08-05T08:40:57.536Z,30.10
2022-08-05T08:45:19.918Z,30.10
2022-08-05T08:46:55.176Z,30.20
2022-08-05T08:50:06.141Z,30.20
2022-08-05T08:53:01.982Z,30.20
2022-08-05T08:56:04.843Z,30.20
2022-08-05T08:58:54.528Z,30.10
2022-08-05T09:01:43.757Z,30.10
2022-08-05T09:04:58.117Z,30.10
2022-08-05T09:07:57.055Z,30.00
2022-08-05T09:10:46.886Z,30.00
2022-08-05T09:14:09.683Z,29.90
2022-08-05T09:16:48.824Z,29.80
2022-08-05T09:20:01.996Z,29.70
2022-08-05T09:23:18.544Z,29.70
2022-08-05T09:26:10.276Z,29.50
2022-08-05T09:29:07.086Z,29.40
2022-08-05T09:32:41.353Z,29.30
2022-08-05T09:35:26.933Z,29.10
2022-08-05T09:38:27.452Z,29.10
2022-08-05T09:41:18.086Z,29.00
2022-08-05T09:44:09.053Z,29.00
2022-08-05T09:47:12.619Z,29.10
2022-08-05T09:50:03.597Z,29.20
2022-08-05T09:52:52.931Z,29.40
2022-08-05T09:55:58.313Z,29.50
2022-08-05T09:59:00.098Z,29.70
2022-08-05T10:01:58.359Z,29.90
2022-08-05T10:04:48.385Z,30.00
2022-08-05T10:08:36.052Z,30.20
2022-08-05T10:11:05.890Z,30.30
2022-08-05T10:13:57.541Z,30.50
2022-08-05T10:16:52.926Z,30.60
2022-08-05T10:20:04.208Z,30.80
2022-08-05T10:22:51.793Z,30.90
2022-08-05T10:25:41.203Z,31.00
2022-08-05T10:28:31.439Z,31.10
2022-08-05T10:32:52.140Z,31.20
2022-08-05T10:34:30.998Z,31.20
2022-08-05T10:37:21.097Z,31.30
2022-08-05T10:40:27.963Z,31.40
2022-08-05T10:43:35.530Z,31.40
2022-08-05T10:46:24.915Z,31.50
2022-08-05T10:49:16.525Z,31.60
2022-08-05T10:52:10.562Z,31.70
2022-08-05T10:55:06.863Z,31.80
2022-08-05T10:58:09.391Z,31.90
2022-08-05T11:01:02.790Z,31.90
2022-08-05T11:04:08.795Z,32.00
2022-08-05T11:07:08.888Z,32.00
2022-08-05T11:10:09.499Z,32.00
2022-08-05T11:13:01.353Z,32.10
2022-08-05T11:16:00.347Z,32.10
2022-08-05T11:18:51.763Z,32.20
2022-08-05T11:21:48.756Z,32.20
2022-08-05T11:24:38.708Z,32.20
2022-08-05T11:27:52.006Z,32.30
2022-08-05T11:31:58.617Z,32.20
2022-08-05T11:34:51.607Z,32.20
2022-08-05T11:38:29.049Z,32.20
2022-08-05T11:41:58.330Z,32.10
2022-08-05T11:44:40.684Z,32.10
2022-08-05T11:47:48.574Z,32.10
2022-08-05T11:50:39.280Z,32.10
2022-08-05T11:53:27.791Z,32.20
2022-08-05T11:56:40.719Z,32.20
2022-08-05T11:59:30.821Z,32.30
2022-08-05T12:02:40.125Z,32.30
2022-08-05T12:05:36.065Z,32.30
2022-08-05T12:08:24.949Z,32.20
2022-08-05T12:11:20.482Z,32.00
2022-08-05T12:14:10.192Z,32.00
2022-08-05T12:16:59.104Z,31.90
2022-08-05T12:20:17.224Z,31.90
2022-08-05T12:23:10.777Z,31.90
2022-08-05T12:25:59.260Z,31.80
2022-08-05T12:28:47.923Z,31.80
2022-08-05T12:31:45.872Z,31.70
2022-08-05T12:34:38.793Z,31.70
2022-08-05T12:37:30.049Z,31.70
2022-08-05T12:40:26.730Z,31.70
2022-08-05T12:43:20.976Z,31.80
2022-08-05T12:46:12.505Z,31.80
2022-08-05T12:49:05.910Z,31.80
2022-08-05T12:52:14.355Z,31.80
2022-08-05T12:55:25.380Z,31.80
2022-08-05T12:58:49.312Z,31.80
2022-08-05T13:02:03.287Z,31.80
2022-08-05T13:04:54.284Z,31.80
2022-08-05T13:08:01.004Z,31.80
2022-08-05T13:10:51.251Z,31.60
2022-08-05T13:14:06.835Z,31.60
2022-08-05T13:16:51.094Z,31.60
2022-08-05T13:19:51.710Z,31.50
2022-08-05T13:22:43.305Z,31.50
2022-08-05T13:25:52.326Z,31.50
2022-08-05T13:28:44.085Z,31.50
2022-08-05T13:31:33.781Z,31.60
2022-08-05T13:34:41.172Z,31.60
2022-08-05T13:37:34.881Z,31.70
2022-08-05T13:40:36.879Z,31.80
2022-08-05T13:43:44.916Z,31.80
2022-08-05T13:47:02.315Z,31.70
2022-08-05T13:49:50.639Z,31.70
2022-08-05T13:52:39.109Z,31.70
2022-08-05T13:55:40.815Z,31.70
2022-08-05T13:58:31.018Z,31.60
2022-08-05T14:01:19.769Z,31.60
2022-08-05T14:04:35.026Z,31.70
2022-08-05T14:08:00.249Z,31.80
2022-08-05T14:10:34.786Z,31.90
2022-08-05T14:13:25.413Z,32.00
2022-08-05T14:16:16.724Z,32.00
2022-08-05T14:19:05.771Z,32.00
2022-08-05T14:22:09.499Z,32.00
2022-08-05T14:25:06.299Z,32.00
2022-08-05T14:28:07.757Z,32.00
2022-08-05T14:30:56.332Z,32.10
2022-08-05T14:33:59.338Z,32.10
2022-08-05T14:36:49.079Z,32.10
2022-08-05T14:39:49.822Z,32.10
2022-08-05T14:42:45.560Z,32.10
2022-08-05T14:45:34.046Z,32.10
2022-08-05T14:48:33.304Z,32.10
2022-08-05T14:51:22.627Z,32.10
2022-08-05T14:54:28.175Z,32.10
2022-08-05T14:57:20.489Z,32.10
2022-08-05T15:00:14.267Z,32.00
2022-08-05T15:03:03.797Z,31.90
2022-08-05T15:06:07.425Z,31.90
2022-08-05T15:09:03.535Z,31.90
2022-08-05T15:11:53.714Z,31.80
2022-08-05T15:14:49.686Z,31.80
2022-08-05T15:17:47.202Z,31.60
2022-08-05T15:20:39.845Z,31.40
2022-08-05T15:23:30.298Z,31.30
2022-08-05T15:26:32.163Z,31.10
2022-08-05T15:29:20.989Z,31.00
2022-08-05T15:32:11.812Z,30.80
2022-08-05T15:35:10.024Z,30.70
2022-08-05T15:38:32.421Z,30.60
2022-08-05T15:41:22.059Z,30.40
2022-08-05T15:44:12.069Z,30.40
2022-08-05T15:47:01.895Z,30.30
2022-08-05T15:49:59.242Z,30.30
2022-08-05T15:52:54.298Z,30.20
2022-08-05T15:56:03.043Z,30.10
2022-08-05T15:58:52.486Z,29.90
2022-08-05T16:01:53.219Z,29.80
2022-08-05T16:04:42.282Z,29.60
2022-08-05T16:07:32.134Z,29.50
2022-08-05T16:10:23.122Z,29.40
2022-08-05T16:13:23.620Z,29.20
2022-08-05T16:16:12.742Z,29.20
2022-08-05T16:19:04.378Z,29.00
2022-08-05T16:21:59.417Z,29.00
2022-08-05T16:24:52.549Z,28.90
2022-08-05T16:27:59.879Z,28.70
2022-08-05T16:30:50.299Z,28.70
2022-08-05T16:33:41.497Z,28.60
2022-08-05T16:36:30.538Z,28.50
2022-08-05T16:39:20.775Z,28.50
2022-08-05T16:42:15.253Z,28.40
2022-08-05T16:46:05.827Z,28.30
2022-08-05T16:48:25.161Z,28.30
2022-08-05T16:51:15.841Z,28.20
2022-08-05T16:54:16.050Z,28.20
2022-08-05T16:57:14.993Z,28.20
2022-08-05T17:00:14.334Z,28.10
2022-08-05T17:03:20.031Z,28.10
2022-08-05T17:06:09.281Z,28.00
2022-08-05T17:08:59.340Z,27.90
2022-08-05T17:11:48.604Z,27.80
2022-08-05T17:14:38.498Z,27.80
2022-08-05T17:17:42.389Z,27.60
2022-08-05T17:20:31.493Z,27.60
2022-08-05T17:24:03.715Z,27.50
2022-08-05T17:26:28.500Z,27.40
2022-08-05T17:29:17.426Z,27.30
2022-08-05T17:32:17.240Z,27.20
2022-08-05T17:35:09.241Z,27.10
2022-08-05T17:38:04.853Z,27.10
2022-08-05T17:40:53.730Z,27.00
2022-08-05T17:43:47.249Z,27.00
2022-08-05T17:46:41.564Z,26.90
2022-08-05T17:49:59.900Z,26.90
2022-08-05T17:52:53.282Z,26.80
2022-08-05T17:55:44.071Z,26.80
2022-08-05T17:58:35.238Z,26.70
2022-08-05T18:01:25.635Z,26.60
2022-08-05T18:04:15.328Z,26.60
2022-08-05T18:07:12.399Z,26.60
2022-08-05T18:10:09.972Z,26.60
2022-08-05T18:12:59.064Z,26.60
2022-08-05T18:15:50.314Z,26.60
2022-08-05T18:18:39.895Z,26.60
2022-08-05T18:22:08.229Z,26.60
2022-08-05T18:24:37.710Z,26.60
2022-08-05T18:27:29.321Z,26.60
2022-08-05T18:30:20.570Z,26.60
2022-08-05T18:33:13.615Z,26.60
2022-08-05T18:36:05.052Z,26.60
2022-08-05T18:38:55.612Z,26.60
2022-08-05T18:41:56.091Z,26.70
2022-08-05T18:44:56.570Z,26.70
2022-08-05T18:47:46.420Z,26.70
2022-08-05T18:50:55.346Z,26.80
2022-08-05T18:53:50.821Z,26.80
2022-08-05T18:56:39.290Z,26.80
2022-08-05T18:59:43.708Z,26.80
2022-08-05T19:02:38.678Z,26.80
2022-08-05T19:06:12.711Z,26.80
2022-08-05T19:08:35.886Z,26.70
2022-08-05T19:11:28.546Z,26.70
2022-08-05T19:14:26.632Z,26.70
2022-08-05T19:17:59.494Z,26.60
2022-08-05T19:20:46.928Z,26.60
2022-08-05T19:24:05.996Z,26.60
2022-08-05T19:26:54.548Z,26.50
2022-08-05T19:29:44.151Z,26.50
2022-08-05T19:32:33.049Z,26.50
2022-08-05T19:35:21.749Z,26.40
2022-08-05T19:38:11.781Z,26.40
2022-08-05T19:41:02.118Z,26.40
2022-08-05T19:44:05.728Z,26.30
2022-08-05T19:46:56.839Z,26.30
2022-08-05T19:49:48.001Z,26.30
2022-08-05T19:52:36.646Z,26.30
2022-08-05T19:56:14.916Z,26.20
2022-08-05T19:58:53.454Z,26.20
2022-08-05T20:01:42.859Z,26.20
2022-08-05T20:04:32.222Z,26.10
2022-08-05T20:07:45.776Z,26.10
2022-08-05T20:10:32.435Z,26.10
2022-08-05T20:13:21.593Z,26.00
2022-08-05T20:16:29.629Z,26.00
2022-08-05T20:19:18.145Z,25.90
2022-08-05T20:22:06.721Z,25.90
2022-08-05T20:24:58.277Z,25.90
2022-08-05T20:27:48.116Z,25.80
2022-08-05T20:30:38.580Z,25.80
2022-08-05T20:33:27.325Z,25.70
2022-08-05T20:36:21.777Z,25.60
2022-08-05T20:39:12.959Z,25.60
2022-08-05T20:42:01.965Z,25.60
2022-08-05T20:44:51.790Z,25.50
2022-08-05T20:47:41.033Z,25.50
2022-08-05T20:50:29.481Z,25.40
2022-08-05T20:53:36.774Z,25.40
2022-08-05T20:56:29.904Z,25.30
2022-08-05T20:59:26.654Z,25.30
2022-08-05T21:02:21.825Z,25.30
2022-08-05T21:05:15.353Z,25.20
2022-08-05T21:08:04.347Z,25.10
2022-08-05T21:10:53.240Z,25.10
2022-08-05T21:13:47.601Z,25.00
2022-08-05T21:16:44.381Z,25.00
2022-08-05T21:19:47.268Z,25.00
2022-08-05T21:22:38.814Z,24.90
2022-08-05T21:25:33.856Z,24.90
2022-08-05T21:28:23.852Z,24.80
2022-08-05T21:31:13.177Z,24.80
2022-08-05T21:34:01.919Z,24.70
2022-08-05T21:36:51.742Z,24.70
2022-08-05T21:39:40.879Z,24.70
2022-08-05T21:42:40.973Z,24.60
2022-08-05T21:45:56.335Z,24.60
2022-08-05T21:48:42.112Z,24.50
2022-08-05T21:52:21.999Z,24.50
2022-08-05T21:54:41.345Z,24.40
2022-08-05T21:57:32.427Z,24.40
2022-08-05T22:00:21.347Z,24.30
2022-08-05T22:03:14.394Z,24.30
2022-08-05T22:06:02.903Z,24.30
2022-08-05T22:08:53.653Z,24.30
2022-08-05T22:11:46.868Z,24.20
2022-08-05T22:14:38.805Z,24.20
2022-08-05T22:17:27.547Z,24.20
2022-08-05T22:20:16.862Z,24.20
2022-08-05T22:23:24.065Z,24.10
2022-08-05T22:26:30.520Z,24.10
2022-08-05T22:29:26.785Z,24.10
2022-08-05T22:32:19.496Z,24.10
2022-08-05T22:35:11.392Z,24.10
2022-08-05T22:38:00.047Z,24.00
2022-08-05T22:40:50.123Z,24.10
2022-08-05T22:43:43.694Z,24.00
2022-08-05T22:46:33.548Z,24.00
2022-08-05T22:50:19.259Z,23.90
2022-08-05T22:52:36.813Z,23.90
2022-08-05T22:55:26.239Z,23.90
2022-08-05T22:58:14.793Z,23.90
2022-08-05T23:01:16.804Z,23.80
2022-08-05T23:04:10.390Z,23.80
2022-08-05T23:06:58.914Z,23.80
2022-08-05T23:09:57.225Z,23.80
2022-08-05T23:12:51.321Z,23.80
2022-08-05T23:15:42.810Z,23.80
2022-08-05T23:18:31.543Z,23.70
2022-08-05T23:21:22.228Z,23.70
2022-08-05T23:24:30.720Z,23.60
2022-08-05T23:27:19.673Z,23.60
2022-08-05T23:30:12.499Z,23.60
2022-08-05T23:33:01.454Z,23.50
2022-08-05T23:35:49.965Z,23.50
2022-08-05T23:38:39.750Z,23.50
2022-08-05T23:41:28.272Z,23.40
2022-08-05T23:44:25.143Z,23.40
2022-08-05T23:47:19.744Z,23.30
2022-08-05T23:50:09.758Z,23.30
2022-08-05T23:52:58.290Z,23.30
2022-08-05T23:55:48.440Z,23.30
2022-08-05T23:58:38.895Z,23.30
